• Join FlightAware (Why Join?)
  • Login
  • US Flag 
10:37AM EDT


 

Airport Tracker/Info


-or-


 

Live Flight TrackerFlight Track Log ✈ N45N ✈ 28-Jun-2014 ✈ KSLI - KNUQ

Flight Track Log - Related Links

Times and Time Zones

All times are in EDT time to prevent confusion due to time zone crossing. See the N45N flight status page for this flight to view local times or setup timezone preferences in your user account.

Time Position Orientation Groundspeed Altitude Reporting Facility
EDT Latitude Longitude Course Direction KTS MPH feet Rate Location/Type
02:52PM 33.7833 -118.0667 195° South 146 168 800  Level Southern California TRACON
02:53PM 33.7333 -118.0833 195° South 165 190 2,000 1,200 Climbing Southern California TRACON
02:54PM 33.7000 -118.1167 220° Southwest 171 197 3,100 1,440 Climbing Southern California TRACON
02:55PM 33.6664 -118.1489 219° Southwest 157 181 5,100 1,680 Climbing Los Angeles Center
02:56PM 33.6350 -118.1783 218° Southwest 146 168 6,700 1,500 Climbing Los Angeles Center
02:57PM 33.6261 -118.2181 255° West 142 163 8,300 1,440 Climbing Los Angeles Center
02:58PM 33.6536 -118.2431 323° Northwest 131 151 9,700 1,260 Climbing Los Angeles Center
02:59PM 33.6931 -118.2486 353° North 145 167 11,000 1,200 Climbing Los Angeles Center
03:00PM 33.7317 -118.2108 39° Northeast 180 207 12,200 1,200 Climbing Los Angeles Center
03:01PM 33.7456 -118.1558 73° East 182 209 13,500 1,140 Climbing Los Angeles Center
03:02PM 33.7619 -118.1008 70° East 180 207 14,600 1,020 Climbing Los Angeles Center
03:04PM 33.8417 -118.0975 North 157 181 16,800 1,020 Climbing Los Angeles Center
03:05PM 33.8808 -118.1144 340° North 155 178 17,800 900 Climbing Los Angeles Center
03:06PM 33.9192 -118.1322 339° North 152 175 18,700 840 Climbing Los Angeles Center
03:07PM 33.9572 -118.1492 340° North 151 174 19,600 600 Climbing Los Angeles Center
03:08PM 33.9944 -118.1756 330° Northwest 152 175 20,000 180 Climbing Los Angeles Center
03:09PM 34.0514 -118.2075 335° Northwest 184 212 20,000  Level Los Angeles Center
03:10PM 34.1011 -118.2356 335° Northwest 191 220 20,000  Level Los Angeles Center
03:11PM 34.1497 -118.2656 333° Northwest 196 226 20,000  Level Los Angeles Center
03:12PM 34.1986 -118.2939 334° Northwest 197 227 20,000  Level Los Angeles Center
03:13PM 34.2478 -118.3228 334° Northwest 196 226 20,000  Level Los Angeles Center
03:14PM 34.2961 -118.3522 333° Northwest 196 226 20,000  Level Los Angeles Center
03:15PM 34.3542 -118.3878 333° Northwest 196 226 20,000  Level Los Angeles Center
03:16PM 34.4036 -118.4183 333° Northwest 197 227 20,000  Level Los Angeles Center
03:18PM 34.4536 -118.4461 335° Northwest 198 228 20,000  Level Los Angeles Center
03:19PM 34.5033 -118.4744 335° Northwest 198 228 20,000  Level Los Angeles Center
03:20PM 34.5528 -118.5031 335° Northwest 198 228 20,000  Level Los Angeles Center
03:21PM 34.6025 -118.5331 334° Northwest 199 229 20,000  Level Los Angeles Center
03:22PM 34.6631 -118.5694 334° Northwest 201 231 20,000  Level Los Angeles Center
03:23PM 34.6967 -118.6178 310° West 201 231 20,000  Level Los Angeles Center
03:24PM 34.7203 -118.6761 296° West 196 226 20,000  Level Los Angeles Center
03:25PM 34.7622 -118.7200 319° Northwest 196 226 20,000  Level Los Angeles Center
03:26PM 34.8000 -118.7658 315° West 196 226 20,000  Level Los Angeles Center
03:27PM 34.8464 -118.8197 316° Northwest 193 222 20,000  Level Los Angeles Center
03:28PM 34.8853 -118.8656 316° Northwest 193 222 20,000  Level Los Angeles Center
03:29PM 34.9250 -118.9142 315° West 192 221 20,000  Level Los Angeles Center
03:30PM 34.9633 -118.9608 315° West 194 223 20,000  Level Los Angeles Center
03:31PM 35.0011 -119.0067 315° West 193 222 20,000  Level Los Angeles Center
03:32PM 35.0406 -119.0506 318° Northwest 193 222 20,000  Level Los Angeles Center
03:33PM 35.0778 -119.0975 314° West 193 222 20,000  Level Los Angeles Center
03:34PM 35.1167 -119.1425 317° Northwest 192 221 20,000  Level Los Angeles Center
03:35PM 35.1625 -119.1989 315° West 193 222 20,000  Level Los Angeles Center
03:36PM 35.1997 -119.2450 315° West 193 222 20,000  Level Los Angeles Center
03:37PM 35.2378 -119.2908 315° West 193 222 20,000  Level Los Angeles Center
03:38PM 35.2772 -119.3364 317° Northwest 193 222 20,000  Level Los Angeles Center
03:39PM 35.3153 -119.3822 316° Northwest 193 222 20,000  Level Los Angeles Center
03:40PM 35.3608 -119.4386 315° West 193 222 20,000  Level Los Angeles Center
03:41PM 35.3997 -119.4842 316° Northwest 194 223 20,000  Level Los Angeles Center
03:42PM 35.4372 -119.5314 314° West 194 223 20,000  Level Los Angeles Center
03:43PM 35.4756 -119.5786 315° West 194 223 20,000  Level Los Angeles Center
03:44PM 35.5122 -119.6242 315° West 193 222 20,000  Level Los Angeles Center
03:45PM 35.5508 -119.6700 316° Northwest 193 222 20,000  Level Los Angeles Center
03:46PM 35.5961 -119.7258 315° West 193 222 20,000  Level Los Angeles Center
03:48PM 35.6325 -119.7722 314° West 193 222 20,000  Level Los Angeles Center
03:49PM 35.6692 -119.8183 314° West 192 221 20,000  Level Los Angeles Center
03:50PM 35.7069 -119.8642 315° West 192 221 20,000  Level Los Angeles Center
03:51PM 35.7436 -119.9089 315° West 192 221 20,000  Level Oakland Center
03:52PM 35.7761 -119.9603 308° West 191 220 20,000 -60 Level Oakland Center
03:53PM 35.8072 -120.0122 306° West 189 217 19,900 -300 Descending Oakland Center
03:54PM 35.8428 -120.0644 310° West 196 226 19,500 -480 Descending Oakland Center
03:55PM 35.8881 -120.1258 312° West 198 228 19,000 -480 Descending Oakland Center
03:56PM 35.9264 -120.1786 312° West 203 234 18,600 -480 Descending Oakland Center
03:57PM 35.9647 -120.2292 313° West 203 234 18,100 -540 Descending Oakland Center
03:58PM 36.0022 -120.2811 312° West 203 234 17,600 -480 Descending Oakland Center
03:59PM 36.0406 -120.3325 313° West 204 235 17,200 -480 Descending Oakland Center
04:00PM 36.0775 -120.3842 312° West 203 234 16,700 -540 Descending Oakland Center
04:01PM 36.1133 -120.4344 311° West 200 230 16,200 -360 Descending Oakland Center
04:02PM 36.1497 -120.4858 311° West 200 230 16,000 -120 Descending Oakland Center
04:03PM 36.1908 -120.5436 311° West 191 220 16,000  Level Oakland Center
04:04PM 36.2225 -120.5933 308° West 188 216 16,000  Level Oakland Center
04:05PM 36.2564 -120.6392 313° West 183 211 16,000  Level Oakland Center
04:06PM 36.2903 -120.6869 311° West 183 211 16,000  Level Oakland Center
04:07PM 36.3242 -120.7347 311° West 184 212 16,000  Level Oakland Center
04:08PM 36.3572 -120.7825 311° West 184 212 16,000  Level Oakland Center
04:09PM 36.3900 -120.8306 310° West 183 211 16,000  Level Oakland Center
04:10PM 36.4219 -120.8792 309° West 183 211 16,000  Level Oakland Center
04:11PM 36.4617 -120.9364 311° West 183 211 16,000  Level Oakland Center
04:12PM 36.4942 -120.9842 310° West 182 209 16,000  Level Oakland Center
04:13PM 36.5275 -121.0308 312° West 182 209 16,000 -360 Level Oakland Center
04:14PM 36.5619 -121.0811 310° West 193 222 15,300 -660 Descending Oakland Center
04:15PM 36.5981 -121.1342 310° West 199 229 14,700 -600 Descending Oakland Center
04:16PM 36.6364 -121.1869 312° West 203 234 14,100 -660 Descending Oakland Center
04:17PM 36.6742 -121.2394 312° West 202 232 13,400 -660 Descending Oakland Center
04:18PM 36.7114 -121.2928 311° West 203 234 12,800 -720 Descending Oakland Center
04:19PM 36.7553 -121.3578 310° West 203 234 12,000 -780 Descending Oakland Center
04:20PM 36.7922 -121.4103 311° West 202 232 11,300 -780 Descending Oakland Center
04:21PM 36.8281 -121.4628 310° West 202 232 10,500 -660 Descending Oakland Center
04:22PM 36.8614 -121.5192 306° West 202 232 10,000 -600 Descending Oakland Center
04:23PM 36.8975 -121.5717 311° West 202 232 9,300 -660 Descending Oakland Center
04:24PM 36.9317 -121.6250 309° West 202 232 8,700 -720 Descending Oakland Center
04:25PM 36.9675 -121.6775 311° West 201 231 7,900 -780 Descending Oakland Center
04:26PM 37.0050 -121.7317 311° West 201 231 7,200 -660 Descending Oakland Center
04:27PM 37.0433 -121.7844 312° West 202 232 6,600 -720 Descending Oakland Center
04:28PM 37.0878 -121.8481 311° West 202 232 5,800 -660 Descending Oakland Center
04:29PM 37.1242 -121.8997 311° West 202 232 5,300 -540 Descending Oakland Center
04:30PM 37.1711 -121.9303 333° Northwest 197 227 4,800 -540 Descending Oakland Center
04:31PM 37.2211 -121.9500 343° North 191 220 4,300 -600 Descending Oakland Center
04:32PM 37.2644 -121.9711 339° North 181 208 3,600 -780 Descending Oakland Center
04:34PM 37.3044 -121.9914 338° Northwest 168 193 2,800 -1,020 Descending Oakland Center
04:35PM 37.3394 -122.0094 338° Northwest 150 173 1,600 -960 Descending Oakland Center
04:36PM 37.3719 -122.0275 336° Northwest 138 159 900 -720 Descending Oakland Center
04:36PM 37.3833 -122.0333 338° Northwest 110 127 500 -780 Descending Northern Cal TRACON
04:39PM 37.4000 -122.0333 North  Level FlightAware Approximate